Date,TemperatureHighF,TemperatureAvgF,TemperatureLowF,DewpointHighF,DewpointAvgF,DewpointLowF,HumidityHigh,HumidityAvg,HumidityLow,PressureMaxIn,PressureMinIn,WindSpeedMaxMPH,WindSpeedAvgMPH,GustSpeedMaxMPH,PrecipitationSumIn
2013-12-1,38.5,33.9,33.3,16.3,9.0,5.2,40,35,30,30.06,29.58,10,0,14,1.46
2013-12-2,35.8,32.0,28.4,10.8,4.7,1.1,35,31,30,29.94,29.64,13,0,13,0.16
2013-12-3,33.3,27.0,23.4,5.2,-0.3,-4.2,32,30,28,30.20,29.94,3,0,3,0.00
2013-12-4,24.4,21.2,17.1,-3.2,-5.5,-8.5,31,30,29,30.26,30.20,8,0,8,0.00
2013-12-5,20.8,17.9,12.2,-5.7,-8.0,-12.0,32,30,27,30.20,30.14,6,0,6,0.00
2013-12-6,20.3,15.2,9.7,-6.2,-10.5,-16.2,32,30,27,30.17,30.11,13,2,13,0.00
2013-12-7,20.5,9.8,5.5,-8.2,-16.1,-19.8,29,29,27,30.26,30.14,9,0,9,0.00
2013-12-8,24.1,13.1,7.2,-4.0,-12.5,-18.4,32,30,27,30.38,30.23,5,0,5,0.00
2013-12-9,34.3,25.5,10.6,4.0,-2.4,-13.4,32,29,25,30.35,30.20,19,4,19,0.00
2013-12-10,35.8,29.7,23.2,5.1,0.6,-4.3,29,28,27,30.32,30.20,15,2,15,0.04
2013-12-11,29.7,24.2,20.7,0.6,-3.3,-5.9,30,29,28,30.35,30.23,5,0,5,0.00
2013-12-12,28.2,25.9,23.5,0.8,-2.1,-4.0,31,29,28,30.23,30.03,0,0,0,0.00
2013-12-13,40.3,32.5,26.8,10.6,4.8,0.2,31,30,29,30.32,30.09,6,0,6,0.00
2013-12-14,48.9,40.5,33.3,15.6,10.8,7.0,34,29,24,30.32,30.17,22,3,22,0.16
2013-12-15,53.1,50.0,47.1,17.9,15.2,12.8,27,25,23,30.23,30.14,23,9,24,0.00
2013-12-16,49.5,40.8,30.7,13.7,9.2,1.5,30,27,24,30.35,30.23,20,3,20,0.00
2013-12-17,52.3,39.2,29.3,15.7,8.0,0.7,30,27,21,30.23,29.91,21,2,21,0.00
2013-12-18,48.2,39.6,30.4,12.8,6.1,-1.4,28,24,21,30.03,29.85,23,5,25,0.00
2013-12-19,34.0,29.6,24.4,2.8,-1.0,-4.7,29,26,23,30.20,30.00,8,0,8,0.00
2013-12-20,37.9,34.1,29.1,8.8,4.6,-2.4,30,28,23,30.00,29.58,15,4,15,0.08
2013-12-21,43.5,33.9,26.6,12.6,5.1,-1.9,31,29,28,30.03,29.70,12,1,13,0.00
2013-12-22,41.9,35.3,32.2,14.0,6.9,4.2,33,30,28,30.17,30.03,6,0,6,0.00
2013-12-23,43.5,39.9,35.1,13.6,10.2,6.8,33,29,28,30.32,29.94,16,1,19,0.20
2013-12-24,44.6,36.6,28.4,10.5,6.3,-0.5,31,28,22,30.44,30.32,19,3,19,0.00
2013-12-25,36.5,29.9,27.0,7.3,2.1,-0.4,31,30,28,30.44,30.32,5,0,5,0.00
2013-12-26,37.4,30.3,27.3,8.1,2.2,-1.5,31,29,28,30.32,30.20,0,0,0,0.00
2013-12-27,41.2,33.1,28.6,14.8,4.9,1.1,37,30,28,30.20,30.00,12,0,15,0.04
2013-12-28,44.2,34.9,30.0,11.3,6.0,3.0,31,29,25,30.38,30.20,12,1,13,0.00
2013-12-29,48.2,39.4,29.3,13.9,8.6,1.7,31,28,24,30.35,30.14,20,4,20,0.00
2013-12-30,37.2,31.7,28.8,7.8,3.4,-0.2,31,29,28,30.20,30.03,0,0,0,0.00
2013-12-31,50.2,39.9,32.5,15.0,9.7,4.6,31,28,24,30.26,30.03,17,1,17,0.00